createdAt,value
2023-01-24T00:00:08.389Z,73.03
2023-01-24T00:01:08.383Z,72.93
2023-01-24T00:02:11.402Z,73.03
2023-01-24T00:03:11.381Z,72.93
2023-01-24T00:04:08.363Z,72.93
2023-01-24T00:05:08.313Z,72.62
2023-01-24T00:06:08.301Z,72.41
2023-01-24T00:07:08.284Z,72.72
2023-01-24T00:08:08.283Z,72.72
2023-01-24T00:09:08.291Z,72.62
2023-01-24T00:10:08.278Z,72.72
2023-01-24T00:11:08.237Z,72.41
2023-01-24T00:12:08.218Z,72.52
2023-01-24T00:13:08.206Z,72.00
2023-01-24T00:14:08.193Z,71.89
2023-01-24T00:15:08.202Z,72.20
2023-01-24T00:16:08.323Z,72.10
2023-01-24T00:17:08.178Z,71.79
2023-01-24T00:18:08.150Z,71.79
2023-01-24T00:19:08.117Z,71.79
2023-01-24T00:20:08.128Z,72.20
2023-01-24T00:21:08.103Z,71.69
2023-01-24T00:22:11.125Z,71.48
2023-01-24T00:23:11.099Z,71.58
2023-01-24T00:24:08.112Z,71.48
2023-01-24T00:25:08.081Z,71.27
2023-01-24T00:26:08.039Z,71.58
2023-01-24T00:27:08.019Z,71.79
2023-01-24T00:28:08.011Z,71.69
2023-01-24T00:29:08.005Z,71.79
2023-01-24T00:30:08.012Z,72.00
2023-01-24T00:31:08.118Z,72.20
2023-01-24T00:32:08.010Z,71.69
2023-01-24T00:33:07.940Z,72.10
2023-01-24T00:34:07.944Z,71.89
2023-01-24T00:35:07.969Z,72.00
2023-01-24T00:36:07.906Z,72.31
2023-01-24T00:37:07.879Z,71.89
2023-01-24T00:38:07.871Z,72.00
2023-01-24T00:39:07.866Z,71.48
2023-01-24T00:40:07.865Z,71.48
2023-01-24T00:41:07.893Z,71.58
2023-01-24T00:42:10.821Z,71.06
2023-01-24T00:43:10.823Z,71.06
2023-01-24T00:44:07.796Z,70.75
2023-01-24T00:45:07.787Z,71.06
2023-01-24T00:46:07.874Z,70.33
2023-01-24T00:47:07.778Z,70.23
2023-01-24T00:48:07.732Z,70.23
2023-01-24T00:49:07.732Z,70.02
2023-01-24T00:50:09.415Z,70.33
2023-01-24T00:51:07.704Z,70.54
2023-01-24T00:52:07.839Z,70.23
2023-01-24T00:53:07.659Z,70.54
2023-01-24T00:54:07.654Z,70.85
2023-01-24T00:55:07.648Z,70.85
2023-01-24T00:56:07.632Z,71.27
2023-01-24T00:57:07.612Z,70.85
2023-01-24T00:58:07.619Z,71.27
2023-01-24T00:59:07.587Z,70.95
2023-01-24T01:00:07.564Z,70.64
2023-01-24T01:01:07.565Z,70.54
2023-01-24T01:02:10.619Z,70.43
2023-01-24T01:03:10.581Z,70.64
2023-01-24T01:04:14.525Z,70.85
2023-01-24T01:05:07.489Z,70.95
2023-01-24T01:06:07.482Z,70.75
2023-01-24T01:07:07.468Z,71.37
2023-01-24T01:08:07.478Z,71.06
2023-01-24T01:09:07.469Z,70.54
2023-01-24T01:10:07.437Z,70.85
2023-01-24T01:11:07.418Z,70.43
2023-01-24T01:12:07.421Z,70.64
2023-01-24T01:13:07.404Z,70.85
2023-01-24T01:14:07.413Z,70.43
2023-01-24T01:15:07.365Z,70.43
2023-01-24T01:16:07.405Z,70.54
2023-01-24T01:17:07.352Z,70.85
2023-01-24T01:18:07.320Z,70.75
2023-01-24T01:19:07.330Z,70.43
2023-01-24T01:20:07.296Z,70.64
2023-01-24T01:21:07.302Z,70.12
2023-01-24T01:22:10.261Z,70.02
2023-01-24T01:23:10.271Z,70.12
2023-01-24T01:24:07.332Z,70.02
2023-01-24T01:25:07.225Z,70.02
2023-01-24T01:26:07.212Z,69.92
2023-01-24T01:27:07.213Z,69.81
2023-01-24T01:28:07.180Z,69.92
2023-01-24T01:29:07.175Z,69.71
2023-01-24T01:30:07.199Z,70.23
2023-01-24T01:31:07.272Z,70.23
2023-01-24T01:32:07.258Z,70.43
2023-01-24T01:33:07.113Z,70.23
2023-01-24T01:34:07.091Z,70.95
2023-01-24T01:35:07.112Z,70.85
2023-01-24T01:36:07.103Z,71.06
2023-01-24T01:37:07.065Z,70.43
2023-01-24T01:38:07.106Z,71.06
2023-01-24T01:39:07.032Z,70.64
2023-01-24T01:40:07.028Z,70.54
2023-01-24T01:41:07.002Z,70.78
2023-01-24T01:42:09.994Z,70.36
2023-01-24T01:43:10.156Z,70.15
2023-01-24T01:44:06.974Z,69.81
2023-01-24T01:45:06.954Z,70.02
2023-01-24T01:46:07.008Z,69.92
2023-01-24T01:47:06.944Z,69.92
2023-01-24T01:48:06.906Z,69.60
2023-01-24T01:49:06.936Z,70.02
2023-01-24T01:50:06.880Z,70.02
2023-01-24T01:51:06.886Z,70.43
2023-01-24T01:52:06.859Z,70.43
2023-01-24T01:53:06.836Z,70.12
2023-01-24T01:54:06.857Z,70.12
2023-01-24T01:55:06.815Z,70.02
2023-01-24T01:56:06.824Z,70.02
2023-01-24T01:57:06.787Z,69.92
2023-01-24T01:58:06.775Z,69.92
2023-01-24T01:59:06.802Z,69.81
2023-01-24T02:00:06.742Z,70.75
2023-01-24T02:01:06.800Z,70.43
2023-01-24T02:02:09.766Z,70.75
2023-01-24T02:03:09.727Z,70.54
2023-01-24T02:04:06.739Z,70.95
2023-01-24T02:05:06.689Z,71.09
2023-01-24T02:06:06.675Z,70.78
2023-01-24T02:07:06.658Z,70.26
2023-01-24T02:08:06.640Z,70.57
2023-01-24T02:09:06.620Z,70.26
2023-01-24T02:10:06.643Z,70.05
2023-01-24T02:11:06.603Z,69.74
2023-01-24T02:12:06.587Z,69.84
2023-01-24T02:13:06.576Z,69.32
2023-01-24T02:14:06.573Z,69.43
2023-01-24T02:15:06.585Z,69.22
2023-01-24T02:16:06.570Z,69.22
2023-01-24T02:17:06.520Z,69.12
2023-01-24T02:18:06.491Z,68.70
2023-01-24T02:19:06.507Z,68.49
2023-01-24T02:20:06.503Z,68.38
2023-01-24T02:21:06.460Z,68.60
2023-01-24T02:22:09.456Z,68.80
2023-01-24T02:23:09.441Z,68.49
2023-01-24T02:24:06.466Z,68.49
2023-01-24T02:25:06.407Z,68.38
2023-01-24T02:26:06.426Z,68.38
2023-01-24T02:27:06.382Z,68.91
2023-01-24T02:28:06.369Z,69.32
2023-01-24T02:29:06.361Z,69.22
2023-01-24T02:30:06.343Z,69.74
2023-01-24T02:31:06.406Z,69.53
2023-01-24T02:32:06.306Z,69.43
2023-01-24T02:33:06.293Z,69.22
2023-01-24T02:34:06.286Z,69.22
2023-01-24T02:35:06.278Z,70.36
2023-01-24T02:36:06.245Z,70.68
2023-01-24T02:37:06.292Z,71.20
2023-01-24T02:38:06.225Z,71.41
2023-01-24T02:39:06.227Z,71.82
2023-01-24T02:40:06.201Z,71.41
2023-01-24T02:41:06.202Z,71.41
2023-01-24T02:42:09.193Z,71.41
2023-01-24T02:43:09.174Z,71.41
2023-01-24T02:44:06.147Z,71.41
2023-01-24T02:45:06.152Z,71.51
2023-01-24T02:46:06.168Z,72.00
2023-01-24T02:47:06.106Z,72.24
2023-01-24T02:48:06.142Z,73.07
2023-01-24T02:49:06.078Z,73.07
2023-01-24T02:50:06.070Z,73.18
2023-01-24T02:51:06.062Z,73.80
2023-01-24T02:52:06.105Z,73.80
2023-01-24T02:53:06.016Z,73.59
2023-01-24T02:54:06.020Z,73.69
2023-01-24T02:55:05.998Z,73.35
2023-01-24T02:56:05.997Z,73.25
2023-01-24T02:57:05.976Z,73.97
2023-01-24T02:58:05.988Z,74.18
2023-01-24T02:59:05.939Z,74.43
2023-01-24T03:00:05.935Z,74.11
2023-01-24T03:01:05.954Z,73.56
2023-01-24T03:02:08.957Z,73.56
2023-01-24T03:03:08.932Z,74.18
2023-01-24T03:04:05.875Z,74.18
2023-01-24T03:05:05.871Z,74.18
2023-01-24T03:06:05.846Z,74.53
2023-01-24T03:07:05.838Z,74.74
2023-01-24T03:08:05.858Z,74.84
2023-01-24T03:09:05.835Z,74.95
2023-01-24T03:10:05.791Z,75.36
2023-01-24T03:11:05.795Z,75.67
2023-01-24T03:12:05.768Z,75.74
2023-01-24T03:13:06.712Z,75.64
2023-01-24T03:14:05.768Z,75.98
2023-01-24T03:15:05.725Z,76.51
2023-01-24T03:16:05.709Z,76.61
2023-01-24T03:17:05.707Z,77.13
2023-01-24T03:18:05.683Z,77.03
2023-01-24T03:19:05.693Z,77.44
2023-01-24T03:20:05.654Z,77.96
2023-01-24T03:21:05.644Z,78.07
2023-01-24T03:22:08.627Z,77.65
2023-01-24T03:23:08.623Z,77.34
2023-01-24T03:24:05.719Z,77.86
2023-01-24T03:25:05.647Z,77.55
2023-01-24T03:26:05.573Z,77.75
2023-01-24T03:27:05.566Z,77.75
2023-01-24T03:28:05.564Z,78.24
2023-01-24T03:29:05.554Z,78.49
2023-01-24T03:30:05.521Z,78.90
2023-01-24T03:31:05.552Z,80.15
2023-01-24T03:32:05.577Z,80.05
2023-01-24T03:33:05.475Z,80.36
2023-01-24T03:34:05.465Z,80.67
2023-01-24T03:35:05.453Z,80.77
2023-01-24T03:36:05.472Z,80.88
2023-01-24T03:37:05.423Z,80.15
2023-01-24T03:38:05.416Z,80.26
2023-01-24T03:39:05.410Z,80.05
2023-01-24T03:40:05.411Z,80.57
2023-01-24T03:41:05.395Z,80.77
2023-01-24T03:42:08.425Z,80.57
2023-01-24T03:43:08.357Z,80.46
2023-01-24T03:44:05.340Z,80.36
2023-01-24T03:45:05.314Z,80.46
2023-01-24T03:46:05.367Z,80.67
2023-01-24T03:47:05.285Z,80.98
2023-01-24T03:48:05.306Z,80.98
2023-01-24T03:49:05.258Z,80.67
2023-01-24T03:50:05.247Z,80.88
2023-01-24T03:51:05.230Z,80.77
2023-01-24T03:52:05.218Z,81.09
2023-01-24T03:53:05.252Z,81.29
2023-01-24T03:54:05.199Z,81.40
2023-01-24T03:55:05.185Z,82.75
2023-01-24T03:56:05.171Z,84.73
2023-01-24T03:57:05.150Z,85.14
2023-01-24T03:58:05.188Z,84.83
2023-01-24T03:59:05.117Z,84.42
2023-01-24T04:00:05.168Z,84.52
2023-01-24T04:01:05.158Z,84.11
2023-01-24T04:02:08.171Z,84.21
2023-01-24T04:03:08.128Z,83.69
2023-01-24T04:04:05.063Z,83.69
2023-01-24T04:05:05.051Z,84.21
2023-01-24T04:06:05.034Z,85.46
2023-01-24T04:07:17.877Z,85.46
2023-01-24T04:08:06.001Z,85.46
2023-01-24T04:09:05.018Z,85.46
2023-01-24T04:10:04.993Z,85.25
2023-01-24T04:11:04.964Z,85.14
2023-01-24T04:12:04.941Z,85.46
2023-01-24T04:13:04.932Z,86.60
2023-01-24T04:14:04.952Z,86.60
2023-01-24T04:15:04.905Z,87.02
2023-01-24T04:16:04.890Z,87.43
2023-01-24T04:17:04.922Z,89.62
2023-01-24T04:18:04.884Z,90.45
2023-01-24T04:19:04.869Z,90.14
2023-01-24T04:20:04.873Z,90.14
2023-01-24T04:21:04.821Z,90.45
2023-01-24T04:22:07.822Z,91.18
2023-01-24T04:23:07.839Z,90.66
2023-01-24T04:24:04.839Z,90.77
2023-01-24T04:25:04.764Z,91.18
2023-01-24T04:26:04.760Z,91.08
2023-01-24T04:27:04.762Z,92.74
2023-01-24T04:28:04.724Z,94.72
2023-01-24T04:29:04.752Z,97.01
2023-01-24T04:30:04.709Z,98.36
2023-01-24T04:31:04.860Z,98.88
2023-01-24T04:32:04.681Z,99.51
2023-01-24T04:33:04.687Z,99.30
2023-01-24T04:34:04.652Z,99.20
2023-01-24T04:35:04.645Z,99.41
2023-01-24T04:36:04.622Z,98.57
2023-01-24T04:37:04.606Z,98.36
2023-01-24T04:38:04.629Z,98.05
2023-01-24T04:39:04.594Z,98.05
2023-01-24T04:40:04.564Z,97.59
2023-01-24T04:41:04.556Z,97.43
2023-01-24T04:42:07.552Z,97.43
2023-01-24T04:43:07.568Z,97.22
2023-01-24T04:44:04.506Z,97.74
2023-01-24T04:45:04.511Z,97.95
2023-01-24T04:46:04.478Z,97.53
2023-01-24T04:47:04.508Z,97.64
2023-01-24T04:48:04.514Z,97.22
2023-01-24T04:49:04.454Z,96.97
2023-01-24T04:50:04.434Z,96.97
2023-01-24T04:51:04.407Z,96.76
2023-01-24T04:52:04.397Z,98.78
2023-01-24T04:53:04.386Z,99.99
2023-01-24T04:54:04.412Z,99.99
2023-01-24T04:55:04.367Z,99.99
2023-01-24T04:56:04.394Z,99.99
2023-01-24T04:57:04.329Z,99.99
2023-01-24T04:58:04.328Z,99.99
2023-01-24T04:59:04.302Z,99.99
2023-01-24T05:00:04.308Z,99.99
2023-01-24T05:01:04.763Z,99.99
2023-01-24T05:02:07.342Z,99.99
2023-01-24T05:03:07.271Z,99.99
2023-01-24T05:04:04.263Z,99.99
2023-01-24T05:05:04.226Z,99.99
2023-01-24T05:06:04.234Z,99.99
2023-01-24T05:07:04.193Z,99.99
2023-01-24T05:08:04.180Z,99.99
2023-01-24T05:09:04.177Z,99.99
2023-01-24T05:10:04.153Z,99.99
2023-01-24T05:11:04.188Z,99.99
2023-01-24T05:12:04.176Z,99.99
2023-01-24T05:13:04.134Z,99.99
2023-01-24T05:14:04.103Z,99.99
2023-01-24T05:15:04.101Z,99.99
2023-01-24T05:16:04.080Z,99.99
2023-01-24T05:17:04.081Z,99.99
2023-01-24T05:18:04.080Z,99.99
2023-01-24T05:19:04.061Z,99.99
2023-01-24T05:20:04.022Z,99.99
2023-01-24T05:21:04.085Z,99.99
2023-01-24T05:22:07.035Z,99.99
2023-01-24T05:23:06.997Z,99.99
2023-01-24T05:24:04.052Z,99.99
2023-01-24T05:25:03.958Z,99.99
2023-01-24T05:26:03.932Z,99.99
2023-01-24T05:27:03.931Z,99.99
2023-01-24T05:28:03.926Z,99.99
2023-01-24T05:29:03.895Z,99.99
2023-01-24T05:30:03.925Z,99.99
2023-01-24T05:31:03.873Z,99.99
2023-01-24T05:32:04.041Z,99.99
2023-01-24T05:33:03.844Z,99.99
2023-01-24T05:34:03.826Z,99.99
2023-01-24T05:35:03.853Z,99.99
2023-01-24T05:36:03.803Z,99.99
2023-01-24T05:37:03.795Z,99.99
2023-01-24T05:38:03.806Z,99.99
2023-01-24T05:39:03.775Z,99.99
2023-01-24T05:40:03.806Z,99.99
2023-01-24T05:41:03.743Z,99.99
2023-01-24T05:42:06.719Z,99.99
2023-01-24T05:43:06.746Z,99.99
2023-01-24T05:44:03.697Z,99.99
2023-01-24T05:45:03.690Z,99.99
2023-01-24T05:46:03.836Z,99.99
2023-01-24T05:47:03.663Z,99.99
2023-01-24T05:48:03.645Z,99.99
2023-01-24T05:49:03.664Z,99.99
2023-01-24T05:50:03.646Z,99.99
2023-01-24T05:51:03.599Z,99.99
2023-01-24T05:52:03.644Z,99.99
2023-01-24T05:53:03.588Z,99.99
2023-01-24T05:54:03.579Z,99.99
2023-01-24T05:55:03.547Z,99.99
2023-01-24T05:56:03.528Z,99.99
2023-01-24T05:57:03.519Z,99.99
2023-01-24T05:58:03.570Z,99.99
2023-01-24T05:59:03.497Z,99.99
2023-01-24T06:00:03.481Z,99.99
2023-01-24T06:01:03.475Z,99.99
2023-01-24T06:02:06.477Z,99.99
2023-01-24T06:03:06.657Z,99.99
2023-01-24T06:04:04.461Z,99.99
2023-01-24T06:05:03.461Z,99.99
2023-01-24T06:06:03.398Z,99.99
2023-01-24T06:07:03.408Z,99.99
2023-01-24T06:08:03.389Z,99.99
2023-01-24T06:09:03.364Z,99.99
2023-01-24T06:10:03.418Z,99.99
2023-01-24T06:11:03.343Z,99.99
2023-01-24T06:12:03.319Z,99.99
2023-01-24T06:13:03.303Z,99.99
2023-01-24T06:14:03.282Z,99.99
2023-01-24T06:15:03.294Z,99.99
2023-01-24T06:16:03.376Z,99.99
2023-01-24T06:17:03.251Z,99.99
2023-01-24T06:18:03.243Z,99.99
2023-01-24T06:19:03.229Z,99.99
2023-01-24T06:20:03.210Z,99.99
2023-01-24T06:21:03.216Z,99.99
2023-01-24T06:22:06.211Z,99.99
2023-01-24T06:23:06.192Z,99.99
2023-01-24T06:24:03.200Z,99.99
2023-01-24T06:25:03.187Z,99.99
2023-01-24T06:26:03.143Z,99.99
2023-01-24T06:27:03.191Z,99.99
2023-01-24T06:28:03.103Z,99.99
2023-01-24T06:29:03.113Z,99.99
2023-01-24T06:30:03.102Z,99.99
2023-01-24T06:31:03.103Z,99.99
2023-01-24T06:32:03.086Z,99.99
2023-01-24T06:33:03.084Z,99.99
2023-01-24T06:34:03.040Z,99.99
2023-01-24T06:35:03.021Z,99.99
2023-01-24T06:36:03.007Z,99.99
2023-01-24T06:37:03.030Z,99.99
2023-01-24T06:38:02.971Z,99.99
2023-01-24T06:39:02.970Z,99.99
2023-01-24T06:40:02.933Z,99.99
2023-01-24T06:41:02.947Z,99.99
2023-01-24T06:42:05.953Z,99.99
2023-01-24T06:43:05.917Z,99.99
2023-01-24T06:44:02.888Z,99.99
2023-01-24T06:45:02.893Z,99.99
2023-01-24T06:46:02.925Z,99.99
2023-01-24T06:47:02.845Z,99.99
2023-01-24T06:48:03.834Z,99.99
2023-01-24T06:49:02.844Z,99.99
2023-01-24T06:50:02.807Z,99.99
2023-01-24T06:51:02.800Z,99.99
2023-01-24T06:52:02.799Z,99.99
2023-01-24T06:53:02.849Z,99.99
2023-01-24T06:54:04.158Z,99.99
2023-01-24T06:55:02.755Z,99.99
2023-01-24T06:56:02.727Z,99.99
2023-01-24T06:57:02.729Z,99.99
2023-01-24T06:58:02.710Z,99.99
2023-01-24T06:59:02.717Z,99.99
2023-01-24T07:00:02.671Z,99.99
2023-01-24T07:01:02.660Z,99.99
2023-01-24T07:02:05.638Z,99.99
2023-01-24T07:03:05.728Z,99.99
2023-01-24T07:04:10.148Z,99.99
2023-01-24T07:05:02.635Z,99.99
2023-01-24T07:06:02.593Z,99.99
2023-01-24T07:07:02.599Z,99.99
2023-01-24T07:08:02.574Z,99.99
2023-01-24T07:09:02.608Z,99.99
2023-01-24T07:10:02.544Z,99.99
2023-01-24T07:11:02.528Z,99.99
2023-01-24T07:12:02.518Z,99.99
2023-01-24T07:13:02.519Z,99.99
2023-01-24T07:14:02.489Z,99.99
2023-01-24T07:15:02.527Z,99.99
2023-01-24T07:16:02.606Z,99.99
2023-01-24T07:17:02.451Z,99.99
2023-01-24T07:18:02.431Z,99.99
2023-01-24T07:19:02.423Z,99.99
2023-01-24T07:20:02.406Z,99.99
2023-01-24T07:21:02.412Z,99.99
2023-01-24T07:22:05.432Z,99.99
2023-01-24T07:23:05.388Z,99.99
2023-01-24T07:24:02.385Z,99.99
2023-01-24T07:25:02.341Z,99.99
2023-01-24T07:26:02.327Z,99.99
2023-01-24T07:27:02.321Z,99.99
2023-01-24T07:28:02.353Z,99.99
2023-01-24T07:29:02.298Z,99.99
2023-01-24T07:30:02.263Z,99.99
2023-01-24T07:31:02.290Z,99.99
2023-01-24T07:32:02.325Z,99.99
2023-01-24T07:33:02.242Z,99.99
2023-01-24T07:34:02.290Z,99.99
2023-01-24T07:35:02.201Z,99.99
2023-01-24T07:36:02.191Z,99.99
2023-01-24T07:37:02.183Z,99.99
2023-01-24T07:38:02.167Z,99.99
2023-01-24T07:39:02.157Z,99.99
2023-01-24T07:40:02.159Z,99.99
2023-01-24T07:41:02.131Z,99.99
2023-01-24T07:42:05.103Z,99.99
2023-01-24T07:43:05.111Z,99.99
2023-01-24T07:44:02.094Z,99.99
2023-01-24T07:45:02.098Z,99.99
2023-01-24T07:46:02.156Z,99.99
2023-01-24T07:47:02.089Z,99.99
2023-01-24T07:48:02.025Z,99.99
2023-01-24T07:49:02.023Z,99.99
2023-01-24T07:50:01.994Z,99.99
2023-01-24T07:51:01.994Z,99.99
2023-01-24T07:52:01.996Z,99.99
2023-01-24T07:53:01.967Z,99.99
2023-01-24T07:54:02.013Z,99.99
2023-01-24T07:55:01.947Z,99.99
2023-01-24T07:56:02.767Z,99.99
2023-01-24T07:57:01.920Z,99.99
2023-01-24T07:58:01.896Z,99.99
2023-01-24T07:59:01.891Z,99.99
2023-01-24T08:00:01.907Z,99.99
2023-01-24T08:01:01.894Z,99.99
2023-01-24T08:02:04.889Z,99.99
2023-01-24T08:03:04.850Z,99.99
2023-01-24T08:04:01.827Z,99.99
2023-01-24T08:05:01.828Z,99.99
2023-01-24T08:06:01.786Z,99.99
2023-01-24T08:07:01.811Z,99.99
2023-01-24T08:08:01.749Z,99.99
2023-01-24T08:09:01.757Z,99.99
2023-01-24T08:10:01.745Z,99.99
2023-01-24T08:11:01.740Z,99.99
2023-01-24T08:12:01.701Z,99.99
2023-01-24T08:13:01.698Z,99.99
2023-01-24T08:14:01.703Z,99.99
2023-01-24T08:15:01.659Z,99.99
2023-01-24T08:16:01.724Z,99.99
2023-01-24T08:17:01.659Z,99.99
2023-01-24T08:18:01.623Z,99.99
2023-01-24T08:19:01.639Z,99.99
2023-01-24T08:20:01.649Z,99.99
2023-01-24T08:21:01.615Z,99.99
2023-01-24T08:22:04.569Z,99.99
2023-01-24T08:23:04.571Z,99.99
2023-01-24T08:24:01.602Z,99.99
2023-01-24T08:25:01.549Z,99.99
2023-01-24T08:26:01.511Z,99.99
2023-01-24T08:27:01.542Z,99.99
2023-01-24T08:28:01.483Z,99.99
2023-01-24T08:29:01.483Z,99.99
2023-01-24T08:30:01.476Z,99.99
2023-01-24T08:31:01.487Z,99.99
2023-01-24T08:32:01.504Z,99.99
2023-01-24T08:33:01.416Z,99.99
2023-01-24T08:34:01.413Z,99.99
2023-01-24T08:35:01.395Z,99.99
2023-01-24T08:36:01.391Z,99.99
2023-01-24T08:37:01.413Z,99.99
2023-01-24T08:38:01.350Z,99.99
2023-01-24T08:39:06.485Z,99.99
2023-01-24T08:40:02.316Z,99.99
2023-01-24T08:41:01.304Z,99.99
2023-01-24T08:42:04.305Z,99.99
2023-01-24T08:43:04.295Z,99.99
2023-01-24T08:44:01.264Z,99.99
2023-01-24T08:45:01.260Z,99.99
2023-01-24T08:46:01.248Z,99.99
2023-01-24T08:47:01.275Z,99.99
2023-01-24T08:48:01.222Z,99.99
2023-01-24T08:49:01.212Z,99.99
2023-01-24T08:50:01.184Z,99.99
2023-01-24T08:51:01.178Z,99.99
2023-01-24T08:52:01.173Z,99.99
2023-01-24T08:53:01.177Z,99.99
2023-01-24T08:54:01.157Z,99.99
2023-01-24T08:55:01.121Z,99.99
2023-01-24T08:56:01.121Z,99.99
2023-01-24T08:57:01.105Z,99.99
2023-01-24T08:58:01.078Z,99.99
2023-01-24T08:59:01.091Z,99.99
2023-01-24T09:00:01.057Z,99.99
2023-01-24T09:01:01.052Z,99.99
2023-01-24T09:02:05.092Z,99.99
2023-01-24T09:03:04.018Z,99.99
2023-01-24T09:04:01.016Z,99.99
2023-01-24T09:05:01.023Z,99.99
2023-01-24T09:06:00.966Z,99.99
2023-01-24T09:07:00.951Z,99.99
2023-01-24T09:08:00.939Z,99.99
2023-01-24T09:09:00.957Z,99.99
2023-01-24T09:10:00.926Z,99.99
2023-01-24T09:11:00.908Z,99.99
2023-01-24T09:12:00.887Z,99.99
2023-01-24T09:13:00.872Z,99.99
2023-01-24T09:14:00.908Z,99.99
2023-01-24T09:15:00.872Z,99.99
2023-01-24T09:16:00.848Z,99.99
2023-01-24T09:17:00.822Z,99.99
2023-01-24T09:18:00.800Z,99.99
2023-01-24T09:19:00.788Z,99.99
2023-01-24T09:20:00.803Z,99.99
2023-01-24T09:21:00.779Z,99.99
2023-01-24T09:22:03.736Z,99.99
2023-01-24T09:23:03.753Z,99.99
2023-01-24T09:24:00.758Z,99.99
2023-01-24T09:25:00.718Z,99.99
2023-01-24T09:26:00.705Z,99.99
2023-01-24T09:27:00.687Z,99.99
2023-01-24T09:28:01.410Z,99.99
2023-01-24T09:29:00.673Z,99.99
2023-01-24T09:30:00.671Z,99.99
2023-01-24T09:31:00.673Z,99.99
2023-01-24T09:32:00.647Z,99.99
2023-01-24T09:33:00.653Z,99.99
2023-01-24T09:34:00.598Z,99.99
2023-01-24T09:35:00.572Z,99.99
2023-01-24T09:36:00.576Z,99.99
2023-01-24T09:37:00.546Z,99.99
2023-01-24T09:38:00.534Z,99.99
2023-01-24T09:39:05.846Z,99.99
2023-01-24T09:40:01.509Z,99.99
2023-01-24T09:41:00.517Z,99.99
2023-01-24T09:42:11.629Z,99.99
2023-01-24T09:43:04.474Z,99.99
2023-01-24T09:44:00.440Z,99.99
2023-01-24T09:45:00.443Z,99.99
2023-01-24T09:46:00.533Z,99.99
2023-01-24T09:47:00.403Z,99.99
2023-01-24T09:48:00.397Z,99.99
2023-01-24T09:49:00.377Z,99.99
2023-01-24T09:50:00.450Z,99.99
2023-01-24T09:51:01.816Z,99.99
2023-01-24T09:52:00.377Z,99.99
2023-01-24T09:53:00.325Z,99.99
2023-01-24T09:54:00.346Z,99.99
2023-01-24T09:55:00.301Z,99.99
2023-01-24T09:56:00.280Z,99.99
2023-01-24T09:57:00.298Z,99.99
2023-01-24T09:58:00.265Z,99.99
2023-01-24T09:59:00.257Z,99.99
2023-01-24T10:00:00.261Z,99.99
2023-01-24T10:01:00.229Z,99.99
2023-01-24T10:02:03.218Z,99.99
2023-01-24T10:03:03.213Z,99.99
2023-01-24T10:04:00.181Z,99.99
2023-01-24T10:05:00.186Z,99.99
2023-01-24T10:06:00.157Z,99.99
2023-01-24T10:07:00.143Z,99.99
2023-01-24T10:08:00.150Z,99.99
2023-01-24T10:09:00.163Z,99.99
2023-01-24T10:10:00.199Z,99.99
2023-01-24T10:11:00.083Z,99.99
2023-01-24T10:12:00.061Z,99.99
2023-01-24T10:13:00.049Z,99.99
2023-01-24T10:14:00.035Z,99.99
2023-01-24T10:15:00.095Z,99.99
2023-01-24T10:16:00.022Z,99.99
2023-01-24T10:17:00.091Z,99.99
2023-01-24T10:17:59.980Z,99.99
2023-01-24T10:18:59.974Z,99.99
2023-01-24T10:19:59.991Z,99.99
2023-01-24T10:20:59.941Z,99.99
2023-01-24T10:22:02.922Z,99.99
2023-01-24T10:23:02.931Z,99.99
2023-01-24T10:24:00.025Z,99.99
2023-01-24T10:24:59.894Z,99.99
2023-01-24T10:25:59.903Z,99.99
2023-01-24T10:26:59.869Z,99.99
2023-01-24T10:27:59.852Z,99.99
2023-01-24T10:28:59.838Z,99.99
2023-01-24T10:29:59.828Z,99.99
2023-01-24T10:30:59.905Z,99.99
2023-01-24T10:31:59.810Z,99.99
2023-01-24T10:32:59.777Z,99.99
2023-01-24T10:33:59.795Z,99.99
2023-01-24T10:34:59.757Z,99.99
2023-01-24T10:35:59.765Z,99.99
2023-01-24T10:36:59.754Z,99.99
2023-01-24T10:37:59.723Z,99.99
2023-01-24T10:38:59.778Z,99.99
2023-01-24T10:39:59.693Z,99.99
2023-01-24T10:40:59.665Z,99.99
2023-01-24T10:42:02.746Z,99.99
2023-01-24T10:43:02.667Z,99.99
2023-01-24T10:43:59.653Z,99.99
2023-01-24T10:44:59.628Z,99.99
2023-01-24T10:45:59.638Z,99.99
2023-01-24T10:46:59.588Z,99.99
2023-01-24T10:47:59.628Z,99.99
2023-01-24T10:48:59.578Z,99.99
2023-01-24T10:49:59.611Z,99.99
2023-01-24T10:50:59.538Z,99.99
2023-01-24T10:51:59.526Z,99.99
2023-01-24T10:52:59.498Z,99.99
2023-01-24T10:53:59.501Z,99.99
2023-01-24T10:54:59.483Z,99.99
2023-01-24T10:55:59.505Z,99.99
2023-01-24T10:56:59.460Z,99.99
2023-01-24T10:57:59.527Z,99.99
2023-01-24T10:58:59.433Z,99.99
2023-01-24T10:59:59.425Z,99.99
2023-01-24T11:00:59.444Z,99.99
2023-01-24T11:02:02.396Z,99.99
2023-01-24T11:03:02.426Z,99.99
2023-01-24T11:03:59.394Z,99.99
2023-01-24T11:04:59.351Z,99.99
2023-01-24T11:05:59.375Z,99.99
2023-01-24T11:06:59.319Z,99.99
2023-01-24T11:07:59.301Z,99.99
2023-01-24T11:09:00.773Z,99.99
2023-01-24T11:09:59.281Z,99.99
2023-01-24T11:10:59.261Z,99.99
2023-01-24T11:11:59.274Z,99.99
2023-01-24T11:12:59.242Z,99.99
2023-01-24T11:13:59.219Z,99.99
2023-01-24T11:14:59.206Z,99.99
2023-01-24T11:15:59.202Z,99.99
2023-01-24T11:16:59.254Z,99.99
2023-01-24T11:17:59.166Z,99.99
2023-01-24T11:18:59.146Z,99.99
2023-01-24T11:19:59.141Z,99.99
2023-01-24T11:20:59.114Z,99.99
2023-01-24T11:22:02.226Z,99.99
2023-01-24T11:23:02.109Z,99.99
2023-01-24T11:23:59.220Z,99.99
2023-01-24T11:24:59.829Z,99.99
2023-01-24T11:25:59.063Z,99.99
2023-01-24T11:26:59.040Z,99.99
2023-01-24T11:27:59.025Z,99.99
2023-01-24T11:28:59.043Z,99.99
2023-01-24T11:29:59.006Z,99.99
2023-01-24T11:30:59.030Z,99.99
2023-01-24T11:31:58.976Z,99.99
2023-01-24T11:32:58.995Z,99.99
2023-01-24T11:33:58.971Z,99.99
2023-01-24T11:34:58.962Z,99.99
2023-01-24T11:35:59.005Z,99.99
2023-01-24T11:36:59.039Z,99.99
2023-01-24T11:37:58.891Z,99.99
2023-01-24T11:38:58.903Z,99.99
2023-01-24T11:39:58.857Z,99.99
2023-01-24T11:40:58.866Z,99.99
2023-01-24T11:42:01.846Z,99.99
2023-01-24T11:43:01.829Z,99.99
2023-01-24T11:43:58.903Z,99.99
2023-01-24T11:44:58.798Z,99.99
2023-01-24T11:45:58.780Z,99.99
2023-01-24T11:46:58.798Z,99.99
2023-01-24T11:47:58.748Z,99.99
2023-01-24T11:48:58.873Z,99.99
2023-01-24T11:49:58.750Z,99.99
2023-01-24T11:51:11.830Z,99.99
2023-01-24T11:51:59.689Z,99.99
2023-01-24T11:52:58.678Z,99.99
2023-01-24T11:53:58.671Z,99.99
2023-01-24T11:54:58.688Z,99.99
2023-01-24T11:55:58.672Z,99.99
2023-01-24T11:56:58.622Z,99.99
2023-01-24T11:57:58.615Z,99.99
2023-01-24T11:58:58.600Z,99.99
2023-01-24T11:59:58.582Z,99.99
2023-01-24T12:00:58.591Z,99.99
2023-01-24T12:02:01.558Z,99.99
2023-01-24T12:03:01.593Z,99.99
2023-01-24T12:03:58.576Z,99.99
2023-01-24T12:04:58.514Z,99.99
2023-01-24T12:05:58.537Z,99.99
2023-01-24T12:06:58.482Z,99.99
2023-01-24T12:07:58.473Z,99.99
2023-01-24T12:08:58.467Z,99.99
2023-01-24T12:09:58.445Z,99.99
2023-01-24T12:11:17.043Z,99.99
2023-01-24T12:11:59.421Z,99.99
2023-01-24T12:12:58.408Z,99.99
2023-01-24T12:13:58.424Z,99.99
2023-01-24T12:14:58.389Z,99.99
2023-01-24T12:15:58.423Z,99.99
2023-01-24T12:16:58.358Z,99.99
2023-01-24T12:17:58.347Z,99.99
2023-01-24T12:18:58.375Z,99.99
2023-01-24T12:19:58.304Z,99.99
2023-01-24T12:20:58.311Z,99.99
2023-01-24T12:22:01.285Z,99.99
2023-01-24T12:23:01.293Z,99.99
2023-01-24T12:23:58.289Z,99.99
2023-01-24T12:24:58.283Z,99.99
2023-01-24T12:25:58.231Z,99.99
2023-01-24T12:26:58.224Z,99.99
2023-01-24T12:27:58.227Z,99.99
2023-01-24T12:28:58.186Z,99.99
2023-01-24T12:29:58.251Z,99.99
2023-01-24T12:30:58.334Z,99.99
2023-01-24T12:31:58.223Z,99.99
2023-01-24T12:32:58.130Z,99.99
2023-01-24T12:33:58.130Z,99.99
2023-01-24T12:34:58.120Z,99.99
2023-01-24T12:35:58.132Z,99.99
2023-01-24T12:36:58.082Z,99.99
2023-01-24T12:38:07.793Z,99.99
2023-01-24T12:38:59.060Z,99.99
2023-01-24T12:39:58.046Z,99.99
2023-01-24T12:40:58.062Z,99.99
2023-01-24T12:42:01.020Z,99.99
2023-01-24T12:43:01.085Z,99.99
2023-01-24T12:43:58.002Z,99.99
2023-01-24T12:44:57.979Z,99.99
2023-01-24T12:45:58.006Z,99.99
2023-01-24T12:46:58.013Z,99.99
2023-01-24T12:47:57.941Z,99.99
2023-01-24T12:49:01.952Z,99.99
2023-01-24T12:49:57.918Z,99.99
2023-01-24T12:50:57.930Z,99.99
2023-01-24T12:51:57.902Z,99.99